createdAt,value
2022-08-05T00:02:51.283Z,2.70
2022-08-05T00:06:05.235Z,2.50
2022-08-05T00:09:19.439Z,2.30
2022-08-05T00:12:22.876Z,2.33
2022-08-05T00:15:55.906Z,2.42
2022-08-05T00:18:50.218Z,2.40
2022-08-05T00:21:54.109Z,2.55
2022-08-05T00:24:57.276Z,2.58
2022-08-05T00:28:00.097Z,2.78
2022-08-05T00:31:04.783Z,2.60
2022-08-05T00:34:54.967Z,2.55
2022-08-05T00:37:51.207Z,2.80
2022-08-05T00:40:58.364Z,2.40
2022-08-05T00:44:03.229Z,2.40
2022-08-05T00:47:06.000Z,2.70
2022-08-05T00:50:09.942Z,2.40
2022-08-05T00:53:44.915Z,2.30
2022-08-05T00:56:36.012Z,2.50
2022-08-05T00:59:44.452Z,2.45
2022-08-05T01:02:50.167Z,2.40
2022-08-05T01:08:57.992Z,2.53
2022-08-05T01:12:18.100Z,2.50
2022-08-05T01:15:35.159Z,2.87
2022-08-05T01:18:48.198Z,2.33
2022-08-05T01:22:15.422Z,2.15
2022-08-05T01:25:40.908Z,2.67
2022-08-05T01:28:54.573Z,2.15
2022-08-05T01:32:01.211Z,2.30
2022-08-05T01:35:10.930Z,2.20
2022-08-05T01:38:14.572Z,2.00
2022-08-05T01:41:33.830Z,2.47
2022-08-05T01:44:37.667Z,1.87
2022-08-05T01:47:43.467Z,2.25
2022-08-05T01:50:50.854Z,1.98
2022-08-05T01:53:58.844Z,2.40
2022-08-05T01:58:29.163Z,2.53
2022-08-05T02:03:39.957Z,2.25
2022-08-05T02:06:45.003Z,2.10
2022-08-05T02:09:48.355Z,2.20
2022-08-05T02:12:57.908Z,2.50
2022-08-05T02:16:33.122Z,2.58
2022-08-05T02:19:47.258Z,1.92
2022-08-05T02:22:57.218Z,2.15
2022-08-05T02:26:01.236Z,1.80
2022-08-05T02:29:06.859Z,1.85
2022-08-05T02:32:30.994Z,2.37
2022-08-05T02:35:37.752Z,2.10
2022-08-05T02:38:52.854Z,2.45
2022-08-05T02:42:01.294Z,2.42
2022-08-05T02:45:05.155Z,2.05
2022-08-05T02:48:12.430Z,2.12
2022-08-05T02:51:16.340Z,2.08
2022-08-05T02:54:35.651Z,2.10
2022-08-05T02:58:12.296Z,2.00
2022-08-05T03:01:03.725Z,2.30
2022-08-05T03:04:14.112Z,2.20
2022-08-05T03:07:59.123Z,2.00
2022-08-05T03:11:53.642Z,2.03
2022-08-05T03:14:08.921Z,1.87
2022-08-05T03:17:16.072Z,2.00
2022-08-05T03:20:19.146Z,2.33
2022-08-05T03:23:24.126Z,2.10
2022-08-05T03:26:31.436Z,2.08
2022-08-05T03:29:45.959Z,2.20
2022-08-05T03:33:02.416Z,2.10
2022-08-05T03:36:06.624Z,2.22
2022-08-05T03:39:20.210Z,2.30
2022-08-05T03:42:32.209Z,1.95
2022-08-05T03:45:57.950Z,2.17
2022-08-05T03:48:59.742Z,2.30
2022-08-05T03:52:50.256Z,2.17
2022-08-05T03:56:04.501Z,1.92
2022-08-05T03:59:03.845Z,2.30
2022-08-05T04:02:14.854Z,2.47
2022-08-05T04:05:23.113Z,2.08
2022-08-05T04:08:34.681Z,2.87
2022-08-05T04:11:50.651Z,2.28
2022-08-05T04:14:57.782Z,2.33
2022-08-05T04:18:06.626Z,2.12
2022-08-05T04:21:11.121Z,2.47
2022-08-05T04:24:19.529Z,2.33
2022-08-05T04:27:41.546Z,2.40
2022-08-05T04:30:45.470Z,2.20
2022-08-05T04:34:17.302Z,2.28
2022-08-05T04:37:11.722Z,2.08
2022-08-05T04:40:19.473Z,2.20
2022-08-05T04:43:22.910Z,2.25
2022-08-05T04:46:28.887Z,2.70
2022-08-05T04:49:38.482Z,2.50
2022-08-05T04:52:54.787Z,2.42
2022-08-05T04:56:14.311Z,2.70
2022-08-05T04:59:23.849Z,2.37
2022-08-05T05:02:43.122Z,2.20
2022-08-05T05:06:39.231Z,2.40
2022-08-05T05:09:13.283Z,2.40
2022-08-05T05:12:17.185Z,2.40
2022-08-05T05:15:59.105Z,2.42
2022-08-05T05:18:57.100Z,2.55
2022-08-05T05:22:24.411Z,2.20
2022-08-05T05:25:32.487Z,2.50
2022-08-05T05:28:42.690Z,2.70
2022-08-05T05:31:47.703Z,2.30
2022-08-05T05:34:52.457Z,2.60
2022-08-05T05:41:04.242Z,2.10
2022-08-05T05:44:35.761Z,2.35
2022-08-05T05:48:06.011Z,2.17
2022-08-05T05:50:59.458Z,2.53
2022-08-05T05:54:18.515Z,2.37
2022-08-05T05:57:22.623Z,2.40
2022-08-05T06:00:27.836Z,2.23
2022-08-05T06:03:53.944Z,2.30
2022-08-05T06:07:01.584Z,2.42
2022-08-05T06:10:10.168Z,2.10
2022-08-05T06:13:14.467Z,2.10
2022-08-05T06:16:30.335Z,2.22
2022-08-05T06:19:35.779Z,2.28
2022-08-05T06:22:40.496Z,2.62
2022-08-05T06:26:12.201Z,2.17
2022-08-05T06:29:25.389Z,2.60
2022-08-05T06:32:31.826Z,2.75
2022-08-05T06:36:04.191Z,2.33
2022-08-05T06:38:57.754Z,2.30
2022-08-05T06:42:04.082Z,2.20
2022-08-05T06:45:09.483Z,2.37
2022-08-05T06:48:53.232Z,2.28
2022-08-05T06:51:36.533Z,2.50
2022-08-05T06:54:44.003Z,2.42
2022-08-05T06:57:57.166Z,2.35
2022-08-05T07:01:07.613Z,2.12
2022-08-05T07:04:10.852Z,3.00
2022-08-05T07:07:24.194Z,2.50
2022-08-05T07:10:52.770Z,2.50
2022-08-05T07:14:20.793Z,2.40
2022-08-05T07:18:02.124Z,2.33
2022-08-05T07:20:56.386Z,2.60
2022-08-05T07:24:01.278Z,2.17
2022-08-05T07:27:05.134Z,2.60
2022-08-05T07:30:28.014Z,2.47
2022-08-05T07:33:36.409Z,2.28
2022-08-05T07:36:41.817Z,2.33
2022-08-05T07:40:04.348Z,2.65
2022-08-05T07:43:14.786Z,2.40
2022-08-05T07:46:26.586Z,2.95
2022-08-05T07:49:29.384Z,2.35
2022-08-05T07:52:32.420Z,2.62
2022-08-05T07:55:44.607Z,2.58
2022-08-05T07:58:59.144Z,2.22
2022-08-05T08:05:07.639Z,2.60
2022-08-05T08:08:14.205Z,2.35
2022-08-05T08:11:19.290Z,2.20
2022-08-05T08:14:30.591Z,2.40
2022-08-05T08:17:34.445Z,2.50
2022-08-05T08:21:00.051Z,2.17
2022-08-05T08:24:04.918Z,2.58
2022-08-05T08:27:09.021Z,2.30
2022-08-05T08:30:20.237Z,2.30
2022-08-05T08:33:37.415Z,2.20
2022-08-05T08:36:48.803Z,2.30
2022-08-05T08:39:53.547Z,2.40
2022-08-05T08:45:19.456Z,2.58
2022-08-05T08:46:24.522Z,2.10
2022-08-05T08:50:06.141Z,2.33
2022-08-05T08:52:58.497Z,2.40
2022-08-05T08:56:05.973Z,2.33
2022-08-05T08:59:14.940Z,2.55
2022-08-05T09:02:26.635Z,2.40
2022-08-05T09:05:38.767Z,2.40
2022-08-05T09:08:53.060Z,2.50
2022-08-05T09:12:00.186Z,2.50
2022-08-05T09:15:09.779Z,2.60
2022-08-05T09:18:13.274Z,2.70
2022-08-05T09:21:20.774Z,3.03
2022-08-05T09:24:24.219Z,2.55
2022-08-05T09:28:05.017Z,2.60
2022-08-05T09:31:43.687Z,2.70
2022-08-05T09:34:52.400Z,2.42
2022-08-05T09:38:17.303Z,2.42
2022-08-05T09:41:19.723Z,2.90
2022-08-05T09:44:40.029Z,2.80
2022-08-05T09:47:54.949Z,2.12
2022-08-05T09:51:04.756Z,2.28
2022-08-05T09:54:31.346Z,2.35
2022-08-05T09:57:35.490Z,2.28
2022-08-05T10:00:56.964Z,2.20
2022-08-05T10:04:10.692Z,2.55
2022-08-05T10:07:20.332Z,2.58
2022-08-05T10:10:54.570Z,2.37
2022-08-05T10:13:57.578Z,2.30
2022-08-05T10:20:47.741Z,2.67
2022-08-05T10:23:59.512Z,2.42
2022-08-05T10:27:03.814Z,2.70
2022-08-05T10:32:48.233Z,2.80
2022-08-05T10:33:36.052Z,2.70
2022-08-05T10:36:40.803Z,2.78
2022-08-05T10:40:03.375Z,2.72
2022-08-05T10:43:35.900Z,2.45
2022-08-05T10:46:50.945Z,2.33
2022-08-05T10:50:33.286Z,2.75
2022-08-05T10:53:48.857Z,2.37
2022-08-05T10:56:57.177Z,2.53
2022-08-05T11:00:20.028Z,2.50
2022-08-05T11:03:26.906Z,2.70
2022-08-05T11:06:31.343Z,2.70
2022-08-05T11:09:52.005Z,2.20
2022-08-05T11:13:40.453Z,2.42
2022-08-05T11:18:07.474Z,2.40
2022-08-05T11:20:56.514Z,2.45
2022-08-05T11:24:16.291Z,2.60
2022-08-05T11:27:51.024Z,2.55
2022-08-05T11:30:56.067Z,2.45
2022-08-05T11:34:08.142Z,2.22
2022-08-05T11:38:30.622Z,2.95
2022-08-05T11:42:01.020Z,2.20
2022-08-05T11:48:11.605Z,2.53
2022-08-05T11:51:14.956Z,2.37
2022-08-05T11:54:40.608Z,2.60
2022-08-05T11:58:10.895Z,2.42
2022-08-05T12:01:15.433Z,2.45
2022-08-05T12:04:23.815Z,2.40
2022-08-05T12:08:03.703Z,2.30
2022-08-05T12:10:59.934Z,2.65
2022-08-05T12:14:10.301Z,2.40
2022-08-05T12:18:04.042Z,2.35
2022-08-05T12:20:38.977Z,2.22
2022-08-05T12:24:07.167Z,2.20
2022-08-05T12:27:21.677Z,2.33
2022-08-05T12:30:38.137Z,2.40
2022-08-05T12:33:48.999Z,2.65
2022-08-05T12:36:53.795Z,2.25
2022-08-05T12:40:03.112Z,2.53
2022-08-05T12:43:07.435Z,2.47
2022-08-05T12:46:28.027Z,2.00
2022-08-05T12:50:03.629Z,2.22
2022-08-05T12:53:08.181Z,2.28
2022-08-05T12:56:35.063Z,2.30
2022-08-05T13:01:57.764Z,1.95
2022-08-05T13:03:14.833Z,2.20
2022-08-05T13:06:19.694Z,2.20
2022-08-05T13:09:27.882Z,2.33
2022-08-05T13:12:31.165Z,1.98
2022-08-05T13:15:42.131Z,2.08
2022-08-05T13:18:57.705Z,2.15
2022-08-05T13:22:01.560Z,1.92
2022-08-05T13:25:19.003Z,2.10
2022-08-05T13:28:22.745Z,1.70
2022-08-05T13:32:03.152Z,1.98
2022-08-05T13:34:49.517Z,2.10
2022-08-05T13:37:55.592Z,1.62
2022-08-05T13:41:00.093Z,1.90
2022-08-05T13:44:03.801Z,2.17
2022-08-05T13:47:08.658Z,1.95
2022-08-05T13:50:16.480Z,1.80
2022-08-05T13:53:19.931Z,1.90
2022-08-05T13:56:22.915Z,1.95
2022-08-05T13:59:27.504Z,1.85
2022-08-05T14:02:33.616Z,1.67
2022-08-05T14:06:04.821Z,1.90
2022-08-05T14:08:59.661Z,1.90
2022-08-05T14:12:17.781Z,1.70
2022-08-05T14:16:05.217Z,2.10
2022-08-05T14:18:44.726Z,2.30
2022-08-05T14:22:10.085Z,1.90
2022-08-05T14:25:19.146Z,1.70
2022-08-05T14:28:26.548Z,1.90
2022-08-05T14:32:03.704Z,1.85
2022-08-05T14:34:53.742Z,2.00
2022-08-05T14:37:58.507Z,2.17
2022-08-05T14:41:06.139Z,1.98
2022-08-05T14:44:20.596Z,2.05
2022-08-05T14:48:02.468Z,1.85
2022-08-05T14:50:48.714Z,1.85
2022-08-05T14:54:26.283Z,1.90
2022-08-05T14:57:15.554Z,2.20
2022-08-05T15:00:21.539Z,2.05
2022-08-05T15:03:33.606Z,1.97
2022-08-05T15:06:37.231Z,2.20
2022-08-05T15:09:51.617Z,2.05
2022-08-05T15:13:03.754Z,1.83
2022-08-05T15:16:08.089Z,1.80
2022-08-05T15:19:23.171Z,2.00
2022-08-05T15:22:28.461Z,2.03
2022-08-05T15:25:51.667Z,2.20
2022-08-05T15:28:54.608Z,2.05
2022-08-05T15:32:02.958Z,2.22
2022-08-05T15:35:10.575Z,2.28
2022-08-05T15:38:34.146Z,1.92
2022-08-05T15:41:56.190Z,1.90
2022-08-05T15:45:01.052Z,1.77
2022-08-05T15:48:04.604Z,2.22
2022-08-05T15:51:07.686Z,2.03
2022-08-05T15:54:11.045Z,1.92
2022-08-05T15:57:18.095Z,2.03
2022-08-05T16:00:26.167Z,1.95
2022-08-05T16:03:35.868Z,2.17
2022-08-05T16:06:44.346Z,2.30
2022-08-05T16:09:49.446Z,2.10
2022-08-05T16:12:52.409Z,2.10
2022-08-05T16:15:58.824Z,2.10
2022-08-05T16:19:02.350Z,2.30
2022-08-05T16:22:06.060Z,2.10
2022-08-05T16:25:10.264Z,2.30
2022-08-05T16:28:14.173Z,2.25
2022-08-05T16:31:18.680Z,2.00
2022-08-05T16:34:23.184Z,2.30
2022-08-05T16:38:16.147Z,2.25
2022-08-05T16:40:55.606Z,2.30
2022-08-05T16:44:04.870Z,2.33
2022-08-05T16:47:07.929Z,2.20
2022-08-05T16:50:30.785Z,2.00
2022-08-05T16:54:04.273Z,1.85
2022-08-05T16:56:58.026Z,2.22
2022-08-05T17:00:08.336Z,2.28
2022-08-05T17:03:15.237Z,2.20
2022-08-05T17:06:24.462Z,2.25
2022-08-05T17:09:57.612Z,2.33
2022-08-05T17:12:55.640Z,2.25
2022-08-05T17:16:13.162Z,2.10
2022-08-05T17:19:22.244Z,2.12
2022-08-05T17:22:25.953Z,2.60
2022-08-05T17:25:39.525Z,2.33
2022-08-05T17:28:43.447Z,2.87
2022-08-05T17:31:58.499Z,2.55
2022-08-05T17:35:02.389Z,2.65
2022-08-05T17:38:09.045Z,2.65
2022-08-05T17:42:18.544Z,3.10
2022-08-05T17:44:34.914Z,3.08
2022-08-05T17:47:38.984Z,3.08
2022-08-05T17:50:42.234Z,3.17
2022-08-05T17:53:53.563Z,2.75
2022-08-05T17:56:57.711Z,2.60
2022-08-05T18:00:03.685Z,2.85
2022-08-05T18:03:08.756Z,3.20
2022-08-05T18:06:14.958Z,3.22
2022-08-05T18:09:18.703Z,2.83
2022-08-05T18:12:22.365Z,2.80
2022-08-05T18:15:31.192Z,2.25
2022-08-05T18:18:39.589Z,2.90
2022-08-05T18:22:09.010Z,2.78
2022-08-05T18:25:06.860Z,2.78
2022-08-05T18:28:10.011Z,2.70
2022-08-05T18:31:12.807Z,2.53
2022-08-05T18:34:21.537Z,2.40
2022-08-05T18:37:34.619Z,2.60
2022-08-05T18:41:58.087Z,2.37
2022-08-05T18:44:08.087Z,2.35
2022-08-05T18:47:12.316Z,2.37
2022-08-05T18:50:42.247Z,3.03
2022-08-05T18:53:50.419Z,3.40
2022-08-05T18:56:53.790Z,3.72
2022-08-05T19:00:02.479Z,3.05
2022-08-05T19:03:07.370Z,2.53
2022-08-05T19:06:22.052Z,2.72
2022-08-05T19:09:25.326Z,2.53
2022-08-05T19:12:32.596Z,2.57
2022-08-05T19:15:58.828Z,3.00
2022-08-05T19:22:02.626Z,3.20
2022-08-05T19:25:06.176Z,3.00
2022-08-05T19:28:11.091Z,2.60
2022-08-05T19:31:19.295Z,2.33
2022-08-05T19:34:25.153Z,2.40
2022-08-05T19:37:47.467Z,2.55
2022-08-05T19:40:52.978Z,2.80
2022-08-05T19:44:05.887Z,2.90
2022-08-05T19:47:16.359Z,3.28
2022-08-05T19:50:20.505Z,2.87
2022-08-05T19:54:05.012Z,2.55
2022-08-05T19:56:49.984Z,2.83
2022-08-05T20:00:00.823Z,2.40
2022-08-05T20:03:14.327Z,2.87
2022-08-05T20:06:29.323Z,3.55
2022-08-05T20:09:54.749Z,3.15
2022-08-05T20:12:56.741Z,3.30
2022-08-05T20:15:59.879Z,3.55
2022-08-05T20:19:03.872Z,3.40
2022-08-05T20:22:06.895Z,4.03
2022-08-05T20:25:12.706Z,4.68
2022-08-05T20:28:15.523Z,3.60
2022-08-05T20:31:21.804Z,4.22
2022-08-05T20:34:31.521Z,3.87
2022-08-05T20:38:06.307Z,3.42
2022-08-05T20:40:58.708Z,3.30
2022-08-05T20:44:17.421Z,3.90
2022-08-05T20:47:32.130Z,3.33
2022-08-05T20:50:39.705Z,3.20
2022-08-05T20:53:56.421Z,2.95
2022-08-05T20:57:00.379Z,2.90
2022-08-05T21:00:19.706Z,3.53
2022-08-05T21:03:24.661Z,2.87
2022-08-05T21:06:29.707Z,2.80
2022-08-05T21:09:33.723Z,3.00
2022-08-05T21:12:36.893Z,3.22
2022-08-05T21:15:44.459Z,3.10
2022-08-05T21:18:53.970Z,3.53
2022-08-05T21:21:58.519Z,3.20
2022-08-05T21:25:01.307Z,3.17
2022-08-05T21:28:05.028Z,3.10
2022-08-05T21:31:07.945Z,3.00
2022-08-05T21:34:12.556Z,3.25
2022-08-05T21:37:15.591Z,3.40
2022-08-05T21:40:18.676Z,3.33
2022-08-05T21:43:24.846Z,3.10
2022-08-05T21:46:28.615Z,3.20
2022-08-05T21:49:59.336Z,3.20
2022-08-05T21:52:58.915Z,3.50
2022-08-05T21:56:16.856Z,3.08
2022-08-05T21:59:23.904Z,3.90
2022-08-05T22:02:27.838Z,2.78
2022-08-05T22:05:48.588Z,2.90
2022-08-05T22:08:52.728Z,3.12
2022-08-05T22:11:55.864Z,3.03
2022-08-05T22:14:59.780Z,2.78
2022-08-05T22:18:03.061Z,3.00
2022-08-05T22:21:19.366Z,2.95
2022-08-05T22:24:51.820Z,3.10
2022-08-05T22:28:10.348Z,3.03
2022-08-05T22:31:15.273Z,2.70
2022-08-05T22:34:25.459Z,2.80
2022-08-05T22:37:59.039Z,3.07
2022-08-05T22:40:54.930Z,3.00
2022-08-05T22:43:59.443Z,3.62
2022-08-05T22:47:05.662Z,2.53
2022-08-05T22:50:20.330Z,2.72
2022-08-05T22:53:25.731Z,2.72
2022-08-05T22:56:39.970Z,2.33
2022-08-05T22:59:53.934Z,2.97
2022-08-05T23:02:58.104Z,2.53
2022-08-05T23:06:01.072Z,2.72
2022-08-05T23:12:28.909Z,2.92
2022-08-05T23:15:35.346Z,2.60
2022-08-05T23:18:39.309Z,2.90
2022-08-05T23:21:48.341Z,2.90
2022-08-05T23:24:51.673Z,2.70
2022-08-05T23:27:57.838Z,2.60
2022-08-05T23:31:16.036Z,2.58
2022-08-05T23:34:24.598Z,2.53
2022-08-05T23:37:36.562Z,2.45
2022-08-05T23:40:39.877Z,2.67
2022-08-05T23:44:04.646Z,2.47
2022-08-05T23:47:15.025Z,2.50
2022-08-05T23:50:20.324Z,3.17
2022-08-05T23:53:24.560Z,2.30
2022-08-05T23:56:31.478Z,2.55
